MU53 weather

Twin Rivers Regional Medical Center Heliport
Kennett, Missouri, United States

Public forecast

Using degrees Fahrenheit for public forecast. Weather courtesy of forecast.io.

Closest aviation weather report (METAR) to Twin Rivers Regional Medical Center Heliport

Closest report is Kennett Memorial Airport, 0.6 nm (1.2 km) SSE. Retrieved 2020/06/01 16:15 UTC (9 minutes ago):

KTKX 011615Z AUTO 07005KT 10SM CLR 26/09 A3024 RMK AO2

Closest aviation forecast (TAF) to Twin Rivers Regional Medical Center Heliport

Closest forecast is Jonesboro Municipal Airport, 38.1 nm (70.6 km) SW. Retrieved 2020/06/01 12:36 UTC (4 hours ago):

TAF KJBR 011133Z 0112/0212 08004KT P6SM FEW250 FM011600 11008KT P6SM SKC FM020000 13004KT P6SM SKC AMD NOT SKED